Time;durP1;ratioP1;P1;durP2;ratioP2;P2;SDS_P1;SDS_P2;PMS_P1;PMS_P2;Temp;Humidity;BMP_temperature;BMP_pressure;BME280_temperature;BME280_humidity;BME280_pressure;Samples;Min_cycle;Max_cycle;Signal;HPM_P1;HPM_P2
2021/10/16 00:00:16;;;;;;;28.67;17.73;;;;;;;8.66;100.00;100562.91;1704055;84;21022;-71
2021/10/16 00:02:43;;;;;;;31.20;20.37;;;;;;;8.63;100.00;100550.22;1703670;84;21046;-70
2021/10/16 00:05:10;;;;;;;31.57;18.57;;;;;;;8.58;100.00;100542.56;1703926;84;21065;-71
2021/10/16 00:07:37;;;;;;;28.23;16.73;;;;;;;8.51;100.00;100533.36;1703652;84;21058;-70
2021/10/16 00:10:05;;;;;;;29.57;16.87;;;;;;;8.47;100.00;100530.11;1703986;84;21006;-70
2021/10/16 00:12:31;;;;;;;27.23;16.50;;;;;;;8.45;100.00;100526.71;1703974;84;21608;-69
2021/10/16 00:14:58;;;;;;;27.43;16.60;;;;;;;8.41;100.00;100524.41;1703927;84;21053;-70
2021/10/16 00:17:27;;;;;;;29.40;18.10;;;;;;;8.38;100.00;100523.38;1703790;84;21531;-70
2021/10/16 00:19:54;;;;;;;31.87;17.87;;;;;;;8.35;100.00;100519.95;1704137;84;21030;-70
2021/10/16 00:22:20;;;;;;;29.73;18.73;;;;;;;8.32;100.00;100518.05;1703909;84;21037;-70
2021/10/16 00:24:49;;;;;;;31.47;17.00;;;;;;;8.30;100.00;100524.08;1703924;84;21050;-70
2021/10/16 00:27:16;;;;;;;28.73;16.93;;;;;;;8.27;100.00;100520.31;1703865;82;21026;-69
2021/10/16 00:29:43;;;;;;;29.53;16.90;;;;;;;8.25;100.00;100522.31;1703746;84;21053;-70
2021/10/16 00:32:10;;;;;;;28.80;16.83;;;;;;;8.21;100.00;100516.36;1681989;84;21515;-71
2021/10/16 00:34:37;;;;;;;26.07;15.63;;;;;;;8.19;100.00;100522.39;1703926;84;21543;-70
2021/10/16 00:37:04;;;;;;;24.43;15.33;;;;;;;8.17;100.00;100525.73;1703932;84;21018;-70
2021/10/16 00:39:33;;;;;;;27.10;16.43;;;;;;;8.16;100.00;100518.63;1704063;84;21028;-70
2021/10/16 00:41:59;;;;;;;25.60;15.93;;;;;;;8.14;100.00;100505.81;1704662;84;21032;-71
2021/10/16 00:44:27;;;;;;;29.23;16.80;;;;;;;8.10;100.00;100503.06;1703938;84;21535;-71
2021/10/16 00:46:59;;;;;;;28.80;17.30;;;;;;;8.08;100.00;100499.67;1724069;82;21034;-69
2021/10/16 00:49:26;;;;;;;30.70;17.63;;;;;;;8.06;100.00;100501.16;1742241;82;21018;-70
2021/10/16 00:51:53;;;;;;;28.47;17.27;;;;;;;8.03;100.00;100501.94;1742360;82;21073;-70
2021/10/16 00:54:22;;;;;;;29.20;18.53;;;;;;;7.98;100.00;100502.36;1741920;82;21045;-70
2021/10/16 00:56:51;;;;;;;30.77;19.90;;;;;;;7.93;100.00;100504.16;1737339;82;21104;-70
2021/10/16 00:59:19;;;;;;;33.80;21.03;;;;;;;7.89;100.00;100503.22;1724539;81;21075;-71
2021/10/16 01:01:46;;;;;;;31.03;19.40;;;;;;;7.84;100.00;100502.80;1723956;83;21091;-70
2021/10/16 01:04:14;;;;;;;29.43;18.40;;;;;;;7.78;100.00;100502.36;1723369;83;21087;-70
2021/10/16 01:06:43;;;;;;;29.40;18.93;;;;;;;7.76;100.00;100509.73;1708225;84;21054;-70
2021/10/16 01:09:10;;;;;;;31.40;20.17;;;;;;;7.74;100.00;100513.58;1708717;84;21054;-71
2021/10/16 01:11:52;;;;;;;31.50;19.57;;;;;;;7.69;100.00;100505.91;1708306;84;21047;-71
2021/10/16 01:14:20;;;;;;;29.37;18.30;;;;;;;7.66;100.00;100499.96;1687496;85;21097;-70
2021/10/16 01:16:50;;;;;;;32.33;20.17;;;;;;;7.63;100.00;100494.85;1687529;85;21014;-71
2021/10/16 01:19:19;;;;;;;33.03;20.73;;;;;;;7.59;100.00;100493.78;1687584;85;21018;-71
2021/10/16 01:21:48;;;;;;;30.50;18.67;;;;;;;7.57;100.00;100485.51;1687585;85;21109;-70
2021/10/16 01:24:17;;;;;;;36.13;23.93;;;;;;;7.55;100.00;100479.42;1687095;85;21055;-71
2021/10/16 01:26:47;;;;;;;39.87;26.50;;;;;;;7.53;100.00;100482.25;1687599;85;21061;-71
2021/10/16 01:29:24;;;;;;;39.27;25.60;;;;;;;7.50;100.00;100478.48;1687808;85;21090;-71
2021/10/16 01:31:52;;;;;;;37.30;24.50;;;;;;;7.48;100.00;100480.47;1687549;85;21208;-70
2021/10/16 01:34:19;;;;;;;47.97;32.07;;;;;;;7.48;100.00;100472.90;1687538;85;21093;-71
2021/10/16 01:39:20;;;;;;;50.30;33.87;;;;;;;7.49;100.00;100472.77;1625736;86;21030;-70
2021/10/16 01:41:48;;;;;;;53.60;33.73;;;;;;;7.52;100.00;100479.69;1606490;89;21077;-70
2021/10/16 01:44:15;;;;;;;50.43;33.40;;;;;;;7.55;100.00;100478.91;1606483;89;21101;-71
2021/10/16 01:46:42;;;;;;;47.83;31.20;;;;;;;7.56;100.00;100483.79;1606291;89;21103;-70
2021/10/16 01:49:16;;;;;;;49.10;32.10;;;;;;;7.57;100.00;100472.05;1579396;91;21131;-70
2021/10/16 01:51:47;;;;;;;45.20;28.87;;;;;;;7.58;100.00;100471.07;1610718;89;21568;-70
2021/10/16 01:54:15;;;;;;;39.77;25.87;;;;;;;7.58;100.00;100466.53;1610469;89;21090;-70
2021/10/16 01:56:43;;;;;;;39.50;25.67;;;;;;;7.57;100.00;100462.12;1607179;89;21671;-71
2021/10/16 01:59:21;;;;;;;39.97;24.63;;;;;;;7.60;100.00;100461.02;1610418;89;21096;-71
2021/10/16 02:02:06;;;;;;;39.60;26.23;;;;;;;7.61;100.00;100470.77;1610368;89;21613;-70
2021/10/16 02:04:35;;;;;;;41.10;27.87;;;;;;;7.63;100.00;100466.59;1610455;89;21122;-70
2021/10/16 02:07:02;;;;;;;39.07;27.57;;;;;;;7.63;100.00;100467.44;1610432;89;21120;-71
2021/10/16 02:09:30;;;;;;;37.40;24.60;;;;;;;7.63;100.00;100473.32;1610661;89;20999;-70
2021/10/16 02:11:57;;;;;;;32.50;21.00;;;;;;;7.63;100.00;100477.36;1610666;89;21065;-70
2021/10/16 02:14:24;;;;;;;33.03;20.60;;;;;;;7.61;100.00;100472.11;1610858;89;21089;-71
2021/10/16 02:16:50;;;;;;;30.60;19.83;;;;;;;7.63;100.00;100477.36;1610527;89;21141;-71
2021/10/16 02:19:19;;;;;;;32.33;21.03;;;;;;;7.63;100.00;100476.85;1610660;89;21543;-71
2021/10/16 02:21:47;;;;;;;37.47;24.23;;;;;;;7.63;100.00;100476.85;1610257;89;21069;-71
2021/10/16 02:24:14;;;;;;;39.20;26.70;;;;;;;7.63;100.00;100475.50;1610564;89;21037;-70
2021/10/16 02:26:42;;;;;;;40.47;29.10;;;;;;;7.64;100.00;100480.41;1610668;87;21105;-70
2021/10/16 02:29:10;;;;;;;38.10;27.37;;;;;;;7.64;100.00;100479.91;1610827;89;21065;-71
2021/10/16 02:31:39;;;;;;;34.30;23.67;;;;;;;7.63;100.00;100475.50;1610725;89;21548;-69
2021/10/16 02:34:07;;;;;;;33.00;23.47;;;;;;;7.64;100.00;100481.77;1610783;89;21041;-70
2021/10/16 02:36:38;;;;;;;33.80;23.33;;;;;;;7.64;100.00;100474.53;1669419;85;21073;-71
2021/10/16 02:39:08;;;;;;;37.23;24.87;;;;;;;7.65;100.00;100474.02;1694801;84;21037;-71
2021/10/16 02:41:34;;;;;;;37.10;25.43;;;;;;;7.66;100.00;100469.84;1739974;82;21056;-70
2021/10/16 02:44:01;;;;;;;33.47;22.30;;;;;;;7.67;100.00;100468.03;1739669;82;21047;-70
2021/10/16 02:46:30;;;;;;;31.13;20.47;;;;;;;7.66;100.00;100463.12;1748527;81;21022;-70
2021/10/16 02:48:57;;;;;;;33.70;20.40;;;;;;;7.65;100.00;100457.41;1765019;81;20986;-70
2021/10/16 02:51:24;;;;;;;32.70;19.17;;;;;;;7.65;100.00;100454.71;1764725;81;21002;-70
2021/10/16 02:53:50;;;;;;;29.33;17.27;;;;;;;7.66;100.00;100453.70;1765186;81;20974;-71
2021/10/16 02:56:17;;;;;;;33.47;18.50;;;;;;;7.68;100.00;100465.17;1765086;81;21518;-71
2021/10/16 02:58:44;;;;;;;30.27;15.67;;;;;;;7.70;100.00;100465.91;1768923;81;21389;-71
2021/10/16 03:01:10;;;;;;;28.53;16.20;;;;;;;7.72;100.00;100468.42;1773238;81;21001;-71
2021/10/16 03:03:37;;;;;;;28.40;16.37;;;;;;;7.74;100.00;100465.13;1773214;81;21546;-71
2021/10/16 03:06:04;;;;;;;28.80;17.63;;;;;;;7.76;100.00;100454.55;1765793;81;21072;-71
2021/10/16 03:08:33;;;;;;;26.87;17.20;;;;;;;7.77;100.00;100451.35;1773260;81;21515;-70
2021/10/16 03:11:01;;;;;;;30.53;19.47;;;;;;;7.79;100.00;100446.20;1773151;81;21037;-71
2021/10/16 03:13:33;;;;;;;29.47;17.83;;;;;;;7.80;100.00;100441.15;1703355;84;21077;-71
2021/10/16 03:16:00;;;;;;;28.20;17.17;;;;;;;7.83;100.00;100440.03;1703185;84;21103;-71
2021/10/16 03:18:29;;;;;;;28.27;14.50;;;;;;;7.84;100.00;100447.09;1703289;84;21587;-71
2021/10/16 03:20:56;;;;;;;28.23;15.43;;;;;;;7.85;100.00;100447.46;1709950;84;21147;-70
2021/10/16 03:23:25;;;;;;;33.97;17.13;;;;;;;7.86;100.00;100442.92;1703541;84;21038;-70
2021/10/16 03:25:51;;;;;;;29.47;16.77;;;;;;;7.86;100.00;100436.19;1679753;84;21037;-71
2021/10/16 03:28:18;;;;;;;31.23;18.20;;;;;;;7.84;100.00;100425.55;1703518;84;21018;-70
2021/10/16 03:30:45;;;;;;;29.33;19.00;;;;;;;7.84;100.00;100418.83;1703162;84;21077;-71
2021/10/16 03:33:12;;;;;;;34.23;20.27;;;;;;;7.83;100.00;100421.19;1703220;84;21615;-71
2021/10/16 03:35:38;;;;;;;29.03;17.73;;;;;;;7.82;100.00;100429.40;1703191;84;21033;-70
2021/10/16 03:38:05;;;;;;;29.40;17.77;;;;;;;7.79;100.00;100428.70;1703520;84;21043;-71
2021/10/16 03:40:32;;;;;;;28.97;17.50;;;;;;;7.79;100.00;100432.73;1669885;84;21066;-71
2021/10/16 03:43:00;;;;;;;29.17;17.47;;;;;;;7.76;100.00;100431.67;1665193;86;21481;-70
2021/10/16 03:45:26;;;;;;;28.60;17.00;;;;;;;7.76;100.00;100429.48;1665148;86;21038;-71
2021/10/16 03:47:53;;;;;;;28.80;16.90;;;;;;;7.74;100.00;100428.78;1677594;85;21541;-70
2021/10/16 03:50:20;;;;;;;29.53;17.60;;;;;;;7.74;100.00;100425.58;1678724;85;21078;-71
2021/10/16 03:52:47;;;;;;;27.77;16.80;;;;;;;7.74;100.00;100422.05;1678744;85;21038;-70
2021/10/16 03:55:14;;;;;;;37.50;17.70;;;;;;;7.75;100.00;100412.96;1678606;85;21067;-70
2021/10/16 03:57:41;;;;;;;63.33;23.53;;;;;;;7.75;100.00;100423.73;1678824;85;21041;-70
2021/10/16 04:00:17;;;;;;;43.93;18.50;;;;;;;7.76;100.00;100422.75;1648749;85;21023;-69
2021/10/16 04:02:46;;;;;;;28.37;16.43;;;;;;;7.76;100.00;100426.79;1648103;87;21587;-71
2021/10/16 04:05:11;;;;;;;29.17;16.43;;;;;;;7.75;100.00;100411.11;1648211;87;21071;-71
2021/10/16 04:07:38;;;;;;;36.93;17.97;;;;;;;7.76;100.00;100418.72;1648106;87;21516;-69
2021/10/16 04:10:06;;;;;;;43.53;18.80;;;;;;;7.74;100.00;100416.67;1673579;84;21085;-70
2021/10/16 04:12:33;;;;;;;80.63;25.17;;;;;;;7.73;100.00;100426.56;1703763;84;21552;-71
2021/10/16 04:15:00;;;;;;;123.03;29.30;;;;;;;7.71;100.00;100435.28;1703766;84;21082;-70
2021/10/16 04:17:29;;;;;;;46.93;19.53;;;;;;;7.71;100.00;100431.75;1703346;84;21049;-70
2021/10/16 04:19:56;;;;;;;40.40;18.63;;;;;;;7.71;100.00;100435.79;1703513;84;21026;-71
2021/10/16 04:22:23;;;;;;;48.20;19.97;;;;;;;7.69;100.00;100429.20;1703435;84;21026;-71
2021/10/16 04:24:51;;;;;;;39.10;18.73;;;;;;;7.66;100.00;100424.09;1703431;84;21049;-69
2021/10/16 04:27:21;;;;;;;42.23;19.83;;;;;;;7.65;100.00;100430.96;1703440;84;21093;-70
2021/10/16 04:29:49;;;;;;;37.13;19.73;;;;;;;7.63;100.00;100428.41;1700441;84;21022;-70
2021/10/16 04:32:18;;;;;;;42.33;20.53;;;;;;;7.61;100.00;100419.63;1700412;84;21139;-69
2021/10/16 04:34:44;;;;;;;33.07;18.73;;;;;;;7.63;100.00;100423.02;1703456;84;21073;-70
2021/10/16 04:37:11;;;;;;;76.00;23.63;;;;;;;7.63;100.00;100428.91;1703612;84;21045;-70
2021/10/16 04:39:38;;;;;;;55.57;20.33;;;;;;;7.63;100.00;100418.14;1688955;83;21044;-70
2021/10/16 04:42:06;;;;;;;35.50;18.33;;;;;;;7.66;100.00;100409.80;1703582;84;21001;-71
2021/10/16 04:44:35;;;;;;;31.00;17.10;;;;;;;7.67;100.00;100407.47;1703528;84;21036;-71
2021/10/16 04:47:01;;;;;;;33.97;17.17;;;;;;;7.69;100.00;100406.83;1708131;84;21037;-70
2021/10/16 04:49:28;;;;;;;47.63;18.67;;;;;;;7.70;100.00;100403.99;1680344;84;21073;-71
2021/10/16 04:51:55;;;;;;;80.93;22.73;;;;;;;7.70;100.00;100398.61;1711519;84;21060;-70
2021/10/16 04:54:22;;;;;;;42.70;18.67;;;;;;;7.73;100.00;100406.37;1711504;84;21040;-70
2021/10/16 04:56:49;;;;;;;49.37;19.73;;;;;;;7.76;100.00;100403.41;1711499;84;21486;-70
2021/10/16 04:59:16;;;;;;;29.13;14.50;;;;;;;7.79;100.00;100394.17;1717284;82;21532;-70
2021/10/16 05:01:42;;;;;;;25.97;14.40;;;;;;;7.82;100.00;100391.20;1722985;83;21065;-70
2021/10/16 05:04:10;;;;;;;28.73;16.10;;;;;;;7.87;100.00;100397.00;1723156;83;21018;-71
2021/10/16 05:06:36;;;;;;;59.67;20.33;;;;;;;7.90;100.00;100397.23;1722771;83;21069;-70
2021/10/16 05:09:03;;;;;;;95.67;24.67;;;;;;;7.94;100.00;100395.43;1723004;83;21503;-70
2021/10/16 05:11:30;;;;;;;96.40;24.97;;;;;;;7.99;100.00;100390.45;1722878;83;21544;-70
2021/10/16 05:13:57;;;;;;;151.57;32.57;;;;;;;8.06;100.00;100388.55;1722936;83;21456;-70
2021/10/16 05:16:24;;;;;;;93.63;25.50;;;;;;;8.11;100.00;100384.89;1701353;83;21035;-69
2021/10/16 05:18:51;;;;;;;107.00;28.57;;;;;;;8.17;100.00;100387.01;1716442;83;21034;-68
2021/10/16 05:21:17;;;;;;;139.40;29.93;;;;;;;8.22;100.00;100383.37;1717012;83;21489;-69
2021/10/16 05:23:44;;;;;;;51.70;20.87;;;;;;;8.29;100.00;100379.09;1717065;83;21058;-71
2021/10/16 05:26:11;;;;;;;48.57;18.10;;;;;;;8.34;100.00;100374.11;1717014;83;21054;-71
2021/10/16 05:28:38;;;;;;;63.37;22.37;;;;;;;8.39;100.00;100368.77;1717098;83;21555;-70
2021/10/16 05:31:06;;;;;;;63.87;21.20;;;;;;;8.43;100.00;100367.02;1717280;83;21457;-70
2021/10/16 05:33:35;;;;;;;32.23;17.87;;;;;;;8.47;100.00;100369.75;1715770;83;21128;-68
2021/10/16 05:36:02;;;;;;;113.37;29.37;;;;;;;8.52;100.00;100362.58;1716875;83;21097;-70
2021/10/16 05:38:28;;;;;;;98.07;25.80;;;;;;;8.57;100.00;100364.33;1717131;83;21489;-70
2021/10/16 05:40:55;;;;;;;79.93;23.73;;;;;;;8.63;100.00;100365.06;1709506;83;21038;-69
2021/10/16 05:43:23;;;;;;;57.53;21.13;;;;;;;8.69;100.00;100369.87;1712728;83;21010;-70
2021/10/16 05:45:52;;;;;;;46.00;18.87;;;;;;;8.75;100.00;100365.71;1715295;82;21512;-69
2021/10/16 05:48:19;;;;;;;120.30;27.73;;;;;;;8.80;100.00;100370.63;1712397;82;21014;-69
2021/10/16 05:50:47;;;;;;;69.93;21.73;;;;;;;8.83;100.00;100372.52;1725075;82;21015;-70
2021/10/16 05:53:16;;;;;;;72.70;23.27;;;;;;;8.86;100.00;100366.00;1712392;83;21073;-70
2021/10/16 05:55:43;;;;;;;60.47;21.37;;;;;;;8.90;100.00;100360.64;1711266;83;21448;-70
2021/10/16 05:58:10;;;;;;;46.33;18.53;;;;;;;8.96;100.00;100355.13;1711530;83;20998;-68
2021/10/16 06:00:37;;;;;;;59.73;21.37;;;;;;;9.02;100.00;100353.19;1743088;82;21477;-69
2021/10/16 06:03:05;;;;;;;105.17;27.40;;;;;;;9.07;100.00;100355.76;1741941;82;21030;-68
2021/10/16 06:05:37;;;;;;;83.10;24.97;;;;;;;9.14;100.00;100356.00;1734541;82;21113;-70
2021/10/16 06:08:05;;;;;;;84.43;24.97;;;;;;;9.22;100.00;100362.80;1746893;82;20999;-69
2021/10/16 06:10:31;;;;;;;75.50;25.10;;;;;;;9.33;100.00;100356.35;1746843;82;21504;-70
2021/10/16 06:13:00;;;;;;;71.93;23.37;;;;;;;9.46;100.00;100352.73;1746474;82;21082;-70
2021/10/16 06:15:29;;;;;;;88.47;26.83;;;;;;;9.61;100.00;100349.47;1746908;82;21026;-69
2021/10/16 06:17:56;;;;;;;64.77;22.97;;;;;;;9.74;100.00;100348.56;1746271;82;21082;-70
2021/10/16 06:20:30;;;;;;;94.93;25.47;;;;;;;9.88;100.00;100352.55;1746276;82;21053;-68
2021/10/16 06:22:54;;;;;;;64.80;20.60;;;;;;;10.03;100.00;100357.69;1710905;82;21186;-69
2021/10/16 06:25:24;;;;;;;54.07;19.83;;;;;;;10.22;100.00;100352.56;1734661;82;21030;-68
2021/10/16 06:27:51;;;;;;;35.48;17.50;;;;;;;10.40;100.00;100345.75;1736774;83;20983;-68
2021/10/16 06:30:19;;;;;;;31.07;17.33;;;;;;;10.57;100.00;100350.73;1748645;80;21065;-71
2021/10/16 06:32:47;;;;;;;45.10;18.73;;;;;;;10.70;100.00;100348.91;1747778;80;21512;-71
2021/10/16 06:35:13;;;;;;;45.25;21.75;;;;;;;10.79;100.00;100342.50;1783253;80;21005;-71
2021/10/16 06:37:40;;;;;;;58.52;22.60;;;;;;;10.88;100.00;100340.66;1785118;80;20994;-71
2021/10/16 06:40:08;;;;;;;50.58;19.73;;;;;;;10.98;100.00;100340.53;1780459;80;21045;-70
2021/10/16 06:42:36;;;;;;;35.92;17.55;;;;;;;11.04;100.00;100343.91;1755873;82;20998;-70
2021/10/16 06:45:22;;;;;;;36.93;18.92;;;;;;;11.06;100.00;100336.46;1753139;82;21002;-70
2021/10/16 06:47:50;;;;;;;38.15;17.57;;;;;;;11.06;100.00;100326.16;1741940;80;21018;-70
2021/10/16 06:50:28;;;;;;;37.78;18.60;;;;;;;11.07;100.00;100325.98;1750811;80;21014;-73
2021/10/16 06:52:55;;;;;;;41.37;18.50;;;;;;;11.14;100.00;100309.42;1778311;80;21030;-76
2021/10/16 06:55:22;;;;;;;32.03;16.42;;;;;;;11.21;100.00;100309.59;1757277;82;21065;-77
2021/10/16 06:57:51;;;;;;;30.62;16.12;;;;;;;11.25;100.00;100311.46;1747921;80;21007;-73
2021/10/16 07:00:18;;;;;;;29.60;16.65;;;;;;;11.32;100.00;100308.41;1768666;80;20982;-73
2021/10/16 07:02:45;;;;;;;36.40;22.22;;;;;;;11.40;100.00;100311.09;1773267;80;21014;-73
2021/10/16 07:05:14;;;;;;;28.67;16.75;;;;;;;11.48;100.00;100309.75;1743483;82;20994;-74
2021/10/16 07:07:41;;;;;;;31.30;17.75;;;;;;;11.49;100.00;100303.33;1740573;82;20979;-69
2021/10/16 07:10:09;;;;;;;31.70;17.85;;;;;;;11.57;100.00;100303.82;1740308;82;21045;-68
2021/10/16 07:12:36;;;;;;;30.95;16.95;;;;;;;11.63;100.00;100299.05;1744662;80;21806;-79
2021/10/16 07:15:07;;;;;;;31.70;18.12;;;;;;;11.73;100.00;100293.47;1774406;80;21009;-78
2021/10/16 07:17:34;;;;;;;32.17;18.45;;;;;;;11.86;100.00;100295.63;1784615;80;21002;-77
2021/10/16 07:20:05;;;;;;;29.30;16.85;;;;;;;11.94;100.00;100295.66;1785398;80;20986;-73
2021/10/16 07:22:32;;;;;;;38.83;18.52;;;;;;;12.02;100.00;100303.73;1786331;80;21523;-74
2021/10/16 07:24:59;;;;;;;32.85;18.23;;;;;;;12.08;100.00;100301.70;1787946;80;21025;-77
2021/10/16 07:27:26;;;;;;;39.92;23.05;;;;;;;12.17;100.00;100293.55;1778583;80;21043;-76
2021/10/16 07:29:53;;;;;;;74.17;24.43;;;;;;;12.25;100.00;100298.44;1784160;80;21007;-73
2021/10/16 07:32:19;;;;;;;115.85;29.40;;;;;;;12.34;100.00;100294.66;1783054;80;20990;-71
2021/10/16 07:34:46;;;;;;;55.92;21.30;;;;;;;12.47;100.00;100294.61;1784015;80;20963;-78
2021/10/16 07:37:13;;;;;;;34.18;18.50;;;;;;;12.58;100.00;100288.77;1785143;80;21550;-74
2021/10/16 07:39:40;;;;;;;43.58;17.95;;;;;;;12.70;100.00;100287.87;1784164;80;21033;-69
2021/10/16 07:42:07;;;;;;;39.65;20.52;;;;;;;12.78;100.00;100285.08;1785096;80;21420;-71
2021/10/16 07:44:35;;;;;;;75.60;26.55;;;;;;;12.88;100.00;100285.70;1783292;80;21029;-70
2021/10/16 07:47:02;;;;;;;35.33;17.65;;;;;;;13.00;100.00;100279.34;1759492;80;21548;-71
2021/10/16 07:49:30;;;;;;;32.83;16.73;;;;;;;13.02;100.00;100272.39;1786953;79;21076;-70
2021/10/16 07:51:57;;;;;;;58.35;21.52;;;;;;;13.02;100.00;100273.22;1774875;80;21010;-71
2021/10/16 07:54:23;;;;;;;47.13;18.57;;;;;;;13.08;100.00;100274.36;1767784;80;21023;-69
2021/10/16 07:56:50;;;;;;;28.50;14.47;;;;;;;13.14;100.00;100280.44;1773949;80;20963;-68
2021/10/16 07:59:17;;;;;;;30.30;15.10;;;;;;;13.25;100.00;100269.66;1776125;79;21014;-69
2021/10/16 08:01:46;;;;;;;27.42;14.73;;;;;;;13.43;100.00;100266.11;1740858;82;21010;-70
2021/10/16 08:04:13;;;;;;;26.37;13.53;;;;;;;13.74;100.00;100260.20;1740801;82;21064;-69
2021/10/16 08:06:39;;;;;;;28.05;14.53;;;;;;;14.28;100.00;100260.43;1723172;82;21041;-69
2021/10/16 08:09:07;;;;;;;54.63;33.90;;;;;;;14.93;100.00;100260.87;1719085;82;21467;-69
2021/10/16 08:11:38;;;;;;;29.35;15.40;;;;;;;15.40;100.00;100255.00;1619555;87;21026;-69
2021/10/16 08:14:07;;;;;;;30.85;15.48;;;;;;;15.66;100.00;100257.92;1618151;88;21102;-70
2021/10/16 08:16:35;;;;;;;27.35;14.63;;;;;;;15.67;100.00;100254.67;1618537;88;21265;-69
2021/10/16 08:19:02;;;;;;;29.90;15.43;;;;;;;15.42;100.00;100255.12;1616187;88;21085;-69
2021/10/16 08:21:28;;;;;;;28.23;15.98;;;;;;;15.18;100.00;100246.34;1620720;88;21030;-69
2021/10/16 08:23:55;;;;;;;27.70;14.85;;;;;;;15.02;100.00;100243.89;1621370;87;21026;-69
2021/10/16 08:26:22;;;;;;;27.30;15.78;;;;;;;14.94;100.00;100246.25;1621485;87;21489;-69
2021/10/16 08:28:48;;;;;;;27.48;14.58;;;;;;;14.93;100.00;100247.27;1619271;87;21113;-72
2021/10/16 08:31:17;;;;;;;40.33;16.05;;;;;;;15.15;100.00;100245.89;1627943;87;21101;-69
2021/10/16 08:33:46;;;;;;;26.50;14.18;;;;;;;16.14;100.00;100246.28;1629356;87;21056;-70
2021/10/16 08:36:13;;;;;;;31.10;15.53;;;;;;;16.14;100.00;100246.28;1621932;86;21066;-72
2021/10/16 08:38:44;;;;;;;41.45;16.85;;;;;;;16.75;100.00;100252.78;1622952;86;21013;-69
2021/10/16 08:41:12;;;;;;;25.43;14.18;;;;;;;16.75;100.00;100252.78;1631192;87;21120;-70
2021/10/16 08:43:42;;;;;;;52.70;18.05;;;;;;;17.15;100.00;100235.97;1608607;88;21063;-70
2021/10/16 08:46:09;;;;;;;30.62;15.90;;;;;;;17.37;100.00;100228.92;1583071;90;21034;-69
2021/10/16 08:48:38;;;;;;;27.95;15.05;;;;;;;17.61;100.00;100226.06;1635436;83;21031;-69
2021/10/16 08:51:04;;;;;;;27.35;14.38;;;;;;;17.95;100.00;100223.59;1665371;84;21052;-68
2021/10/16 08:53:32;;;;;;;41.88;18.05;;;;;;;18.03;100.00;100226.09;1722128;82;21500;-68
2021/10/16 08:56:04;;;;;;;33.63;16.42;;;;;;;17.97;100.00;100227.48;1710468;83;21050;-68
2021/10/16 08:58:27;;;;;;;50.10;18.90;;;;;;;17.98;100.00;100219.59;1706343;84;21580;-68
2021/10/16 09:00:54;;;;;;;62.20;22.77;;;;;;;17.93;100.00;100216.13;1738944;80;21101;-67
2021/10/16 09:03:45;;;;;;;32.60;15.23;;;;;;;17.96;100.00;100214.88;1742704;82;21414;-68
2021/10/16 09:06:20;;;;;;;29.50;14.03;;;;;;;17.76;100.00;100217.61;1754878;80;21125;-69
2021/10/16 09:09:03;;;;;;;30.65;15.58;;;;;;;17.33;100.00;100216.73;1783347;80;21074;-67
2021/10/16 09:11:40;;;;;;;28.55;14.13;;;;;;;17.10;100.00;100210.33;1783455;79;20978;-69
2021/10/16 09:14:11;;;;;;;28.70;14.15;;;;;;;16.87;100.00;100211.06;1782994;80;21093;-69
2021/10/16 09:16:43;;;;;;;34.95;14.68;;;;;;;16.64;100.00;100220.11;1785098;80;21033;-74
2021/10/16 09:19:27;;;;;;;27.58;14.58;;;;;;;16.45;100.00;100213.54;1783283;80;21504;-73
2021/10/16 09:22:01;;;;;;;26.77;15.13;;;;;;;16.33;100.00;100217.41;1784623;79;21057;-72
2021/10/16 09:24:34;;;;;;;25.80;13.35;;;;;;;16.25;100.00;100211.59;1783716;80;21596;-73
2021/10/16 09:27:09;;;;;;;28.02;13.50;;;;;;;16.20;100.00;100211.89;1784467;80;21037;-73
2021/10/16 09:29:41;;;;;;;28.62;17.27;;;;;;;16.11;100.00;100206.63;1746481;80;21005;-69
2021/10/16 09:32:13;;;;;;;30.23;14.43;;;;;;;16.18;100.00;100210.72;1786672;80;21002;-74
2021/10/16 09:34:44;;;;;;;30.08;14.78;;;;;;;16.36;100.00;100200.63;1784409;80;21445;-73
2021/10/16 09:37:19;;;;;;;29.42;15.78;;;;;;;16.42;100.00;100191.61;1699513;83;21109;-73
2021/10/16 09:39:59;;;;;;;28.95;14.40;;;;;;;16.28;100.00;100183.06;1693092;85;21031;-72
2021/10/16 09:42:42;;;;;;;26.02;13.85;;;;;;;16.11;100.00;100184.80;1727319;83;21534;-66
2021/10/16 09:45:14;;;;;;;25.15;13.18;;;;;;;16.14;100.00;100179.45;1712434;83;21465;-74
2021/10/16 09:47:54;;;;;;;25.30;13.35;;;;;;;16.18;100.00;100178.52;1691743;83;21108;-68
2021/10/16 09:50:21;;;;;;;26.12;13.85;;;;;;;16.12;100.00;100181.02;1700365;84;21111;-68
2021/10/16 09:52:50;;;;;;;28.07;13.58;;;;;;;15.97;100.00;100172.66;1712218;84;21108;-68
2021/10/16 09:55:18;;;;;;;23.05;13.68;;;;;;;15.92;100.00;100174.12;1711399;83;21009;-72
2021/10/16 09:57:46;;;;;;;26.82;14.05;;;;;;;16.00;100.00;100171.73;1714588;83;21564;-73
2021/10/16 10:00:15;;;;;;;27.58;14.05;;;;;;;16.12;100.00;100164.64;1683172;83;22218;-73
2021/10/16 10:02:47;;;;;;;25.60;13.38;;;;;;;16.23;100.00;100162.37;1652324;84;21094;-67
2021/10/16 10:05:14;;;;;;;26.73;14.68;;;;;;;16.18;100.00;100161.62;1596904;89;21082;-69
2021/10/16 10:07:42;;;;;;;28.35;15.40;;;;;;;16.18;100.00;100160.25;1604296;86;21046;-68
2021/10/16 10:10:09;;;;;;;27.55;13.53;;;;;;;16.11;100.00;100157.53;1596033;89;21023;-68
2021/10/16 10:12:37;;;;;;;29.90;14.47;;;;;;;16.12;100.00;100148.28;1603313;89;21013;-68
2021/10/16 10:15:07;;;;;;;40.35;24.85;;;;;;;16.16;100.00;100156.89;1599890;89;21199;-68
2021/10/16 10:17:35;;;;;;;30.95;15.55;;;;;;;16.11;100.00;100154.80;1601435;89;21093;-67
2021/10/16 10:20:10;;;;;;;28.42;14.73;;;;;;;16.10;100.00;100146.28;1600796;89;21052;-74
2021/10/16 10:22:37;;;;;;;26.25;14.33;;;;;;;16.07;100.00;100149.95;1598764;89;21482;-68
2021/10/16 10:25:26;;;;;;;28.92;14.60;;;;;;;16.00;100.00;100144.45;1596285;87;21078;-68
2021/10/16 10:27:55;;;;;;;27.22;15.45;;;;;;;16.05;100.00;100143.33;1590547;89;21034;-68
2021/10/16 10:30:40;;;;;;;29.20;14.95;;;;;;;16.09;100.00;100136.94;1598024;89;21030;-68
2021/10/16 10:33:19;;;;;;;28.52;15.65;;;;;;;16.01;100.00;100139.34;1601019;87;21013;-66
2021/10/16 10:36:05;;;;;;;30.10;15.32;;;;;;;15.92;100.00;100135.95;1630886;87;21057;-69
2021/10/16 10:38:35;;;;;;;28.92;15.95;;;;;;;15.97;100.00;100138.57;1584981;89;21523;-67
2021/10/16 10:41:28;;;;;;;29.95;16.02;;;;;;;15.71;100.00;100134.67;1572632;90;21502;-69
2021/10/16 10:43:55;;;;;;;31.87;16.10;;;;;;;15.71;100.00;100134.67;1570186;90;21081;-68
2021/10/16 10:46:24;;;;;;;29.52;15.35;;;;;;;15.73;100.00;100127.96;1584172;88;21596;-68
2021/10/16 10:48:51;;;;;;;29.63;15.43;;;;;;;15.83;100.00;100115.86;1587794;90;21556;-68
2021/10/16 10:51:40;;;;;;;29.65;16.17;;;;;;;15.83;100.00;100103.59;1586884;90;20994;-68
2021/10/16 10:54:15;;;;;;;31.95;15.60;;;;;;;15.88;100.00;100110.14;1584445;90;21576;-68
2021/10/16 10:56:46;;;;;;;30.10;15.60;;;;;;;15.88;100.00;100114.73;1541807;88;21540;-68
2021/10/16 10:59:15;;;;;;;30.32;15.25;;;;;;;15.88;100.00;100114.73;1541524;93;21088;-67
2021/10/16 11:01:50;;;;;;;30.17;16.12;;;;;;;15.89;100.00;100094.61;1551256;89;21510;-67
2021/10/16 11:04:38;;;;;;;28.32;15.35;;;;;;;16.01;100.00;100114.79;1593258;89;21128;-69
2021/10/16 11:09:38;;;;;;;29.40;15.63;;;;;;;15.88;100.00;100109.28;1565323;91;21038;-69
2021/10/16 11:12:06;;;;;;;32.40;15.48;;;;;;;15.83;100.00;100107.69;1560907;91;21161;-69
2021/10/16 11:14:35;;;;;;;30.32;15.53;;;;;;;15.85;100.00;100102.89;1566136;91;21038;-68
2021/10/16 11:17:10;;;;;;;32.80;16.37;;;;;;;16.04;100.00;100104.84;1536491;93;21078;-68
2021/10/16 11:19:50;;;;;;;32.85;16.05;;;;;;;16.24;100.00;100098.59;1502456;95;21078;-69